createdAt,value
2018-02-15T00:04:32.052Z,63.00
2018-02-15T00:10:00.538Z,63.10
2018-02-15T00:15:29.511Z,63.20
2018-02-15T00:20:57.705Z,63.20
2018-02-15T00:26:26.612Z,64.00
2018-02-15T00:31:54.766Z,63.30
2018-02-15T00:37:23.757Z,63.30
2018-02-15T00:42:51.902Z,63.30
2018-02-15T00:48:20.037Z,63.30
2018-02-15T00:53:48.953Z,63.30
2018-02-15T00:59:17.118Z,63.40
2018-02-15T01:04:45.253Z,63.50
2018-02-15T01:10:13.415Z,63.50
2018-02-15T01:15:41.579Z,63.50
2018-02-15T01:21:09.736Z,63.50
2018-02-15T01:26:37.913Z,63.60
2018-02-15T01:32:06.334Z,63.60
2018-02-15T01:37:34.517Z,63.50
2018-02-15T01:43:02.704Z,63.60
2018-02-15T01:48:30.945Z,63.60
2018-02-15T01:53:59.099Z,63.50
2018-02-15T01:59:28.010Z,64.20
2018-02-15T02:04:56.151Z,63.50
2018-02-15T02:10:24.314Z,63.50
2018-02-15T02:15:52.448Z,63.50
2018-02-15T02:21:20.644Z,63.60
2018-02-15T02:26:48.831Z,64.20
2018-02-15T02:32:17.018Z,63.50
2018-02-15T02:37:45.194Z,63.50
2018-02-15T02:43:13.354Z,64.20
2018-02-15T02:48:41.583Z,63.40
2018-02-15T02:54:09.749Z,63.50
2018-02-15T02:59:38.664Z,63.60
2018-02-15T03:05:06.820Z,63.60
2018-02-15T03:10:34.993Z,63.60
2018-02-15T03:16:03.171Z,63.50
2018-02-15T03:21:31.373Z,63.50
2018-02-15T03:26:59.583Z,63.60
2018-02-15T03:32:27.745Z,63.60
2018-02-15T03:37:55.892Z,63.60
2018-02-15T03:43:24.038Z,63.60
2018-02-15T03:48:52.969Z,63.60
2018-02-15T03:54:21.130Z,63.60
2018-02-15T03:59:49.288Z,63.60
2018-02-15T04:05:17.499Z,63.50
2018-02-15T04:10:46.292Z,63.50
2018-02-15T04:16:14.670Z,63.40
2018-02-15T04:21:42.850Z,63.30
2018-02-15T04:27:10.994Z,63.30
2018-02-15T04:32:39.173Z,63.30
2018-02-15T04:38:07.343Z,63.20
2018-02-15T04:43:35.502Z,63.00
2018-02-15T04:49:04.436Z,63.10
2018-02-15T04:54:32.652Z,63.10
2018-02-15T05:00:01.682Z,63.10
2018-02-15T05:05:29.876Z,63.10
2018-02-15T05:10:58.047Z,63.00
2018-02-15T05:16:26.998Z,63.10
2018-02-15T05:21:55.290Z,63.00
2018-02-15T05:27:24.236Z,62.70
2018-02-15T05:32:53.183Z,62.70
2018-02-15T05:38:22.115Z,62.60
2018-02-15T05:44:16.698Z,62.60
2018-02-15T05:49:44.850Z,62.50
2018-02-15T05:55:12.990Z,62.40
2018-02-15T06:00:41.894Z,60.50
2018-02-15T06:06:10.048Z,60.40
2018-02-15T06:11:38.966Z,61.10
2018-02-15T06:17:07.155Z,61.00
2018-02-15T06:22:35.343Z,61.30
2018-02-15T06:28:03.544Z,61.30
2018-02-15T06:33:32.476Z,61.20
2018-02-15T06:39:00.644Z,61.10
2018-02-15T06:44:28.821Z,61.20
2018-02-15T06:49:57.756Z,61.50
2018-02-15T06:55:25.904Z,61.10
2018-02-15T07:00:54.056Z,61.10
2018-02-15T07:06:22.961Z,60.90
2018-02-15T07:11:51.107Z,60.90
2018-02-15T07:17:19.328Z,60.80
2018-02-15T07:22:47.564Z,60.70
2018-02-15T07:28:15.956Z,60.50
2018-02-15T07:33:44.164Z,60.60
2018-02-15T07:39:13.141Z,60.40
2018-02-15T07:44:41.302Z,60.40
2018-02-15T07:50:09.560Z,60.40
2018-02-15T07:55:37.720Z,60.50
2018-02-15T08:01:05.952Z,60.30
2018-02-15T08:06:34.175Z,60.10
2018-02-15T08:12:03.134Z,59.80
2018-02-15T08:17:32.084Z,59.60
2018-02-15T08:23:00.241Z,59.50
2018-02-15T08:28:28.403Z,59.50
2018-02-15T08:33:57.318Z,59.40
2018-02-15T08:39:25.534Z,59.20
2018-02-15T08:44:53.686Z,59.20
2018-02-15T08:50:22.599Z,59.10
2018-02-15T08:55:50.755Z,59.00
2018-02-15T09:01:19.678Z,58.80
2018-02-15T09:06:48.606Z,58.70
2018-02-15T09:12:16.758Z,58.30
2018-02-15T09:17:44.930Z,58.30
2018-02-15T09:23:13.145Z,58.10
2018-02-15T09:28:41.303Z,57.70
2018-02-15T09:34:10.235Z,57.00
2018-02-15T09:39:39.145Z,56.90
2018-02-15T09:45:07.312Z,56.90
2018-02-15T09:50:35.488Z,56.40
2018-02-15T09:56:03.720Z,56.40
2018-02-15T10:01:31.880Z,56.30
2018-02-15T10:07:00.042Z,55.80
2018-02-15T10:12:28.221Z,55.90
2018-02-15T10:17:56.350Z,55.40
2018-02-15T10:23:24.479Z,55.30
2018-02-15T10:28:52.658Z,54.90
2018-02-15T10:34:21.569Z,54.80
2018-02-15T10:39:49.716Z,54.70
2018-02-15T10:45:18.632Z,54.30
2018-02-15T10:50:46.767Z,54.30
2018-02-15T10:56:15.676Z,54.10
2018-02-15T11:01:43.824Z,54.00
2018-02-15T11:07:11.980Z,54.00
2018-02-15T11:12:40.136Z,54.00
2018-02-15T11:18:08.279Z,53.80
2018-02-15T11:23:36.462Z,53.40
2018-02-15T11:29:04.610Z,53.40
2018-02-15T11:34:32.758Z,53.40
2018-02-15T11:40:01.780Z,53.20
2018-02-15T11:45:30.718Z,54.10
2018-02-15T11:50:58.842Z,53.40
2018-02-15T11:56:27.749Z,53.20
2018-02-15T12:01:55.901Z,53.10
2018-02-15T12:07:25.349Z,53.60
2018-02-15T12:12:53.756Z,53.20
2018-02-15T12:18:21.936Z,53.30
2018-02-15T12:23:50.082Z,53.30
2018-02-15T12:29:18.215Z,53.10
2018-02-15T12:34:46.371Z,53.00
2018-02-15T12:40:15.312Z,52.80
2018-02-15T12:45:43.457Z,53.50
2018-02-15T12:51:11.585Z,53.00
2018-02-15T12:56:39.742Z,53.00
2018-02-15T13:02:07.886Z,53.20
2018-02-15T13:07:36.809Z,53.10
2018-02-15T13:13:23.542Z,53.20
2018-02-15T13:25:03.328Z,52.90
2018-02-15T13:30:32.253Z,53.40
2018-02-15T13:36:00.624Z,53.30
2018-02-15T13:41:28.770Z,53.30
2018-02-15T13:46:56.903Z,53.60
2018-02-15T13:52:25.060Z,54.20
2018-02-15T13:57:53.958Z,55.50
2018-02-15T14:03:22.119Z,55.60
2018-02-15T14:08:50.274Z,56.10
2018-02-15T14:14:18.410Z,56.80
2018-02-15T14:19:46.549Z,57.40
2018-02-15T14:25:14.723Z,58.10
2018-02-15T14:30:42.863Z,59.00
2018-02-15T14:36:11.008Z,59.50
2018-02-15T14:41:39.186Z,60.30
2018-02-15T14:47:07.334Z,60.70
2018-02-15T14:52:35.505Z,61.20
2018-02-15T14:58:03.852Z,61.80
2018-02-15T15:03:32.055Z,62.20
2018-02-15T15:09:00.195Z,62.40
2018-02-15T15:14:28.366Z,63.00
2018-02-15T15:19:57.280Z,63.60
2018-02-15T15:25:25.421Z,63.60
2018-02-15T15:30:54.328Z,64.50
2018-02-15T15:36:22.466Z,64.40
2018-02-15T15:41:50.631Z,64.70
2018-02-15T15:47:18.776Z,65.00
2018-02-15T15:52:46.958Z,65.40
2018-02-15T15:58:15.121Z,65.70
2018-02-15T16:03:43.255Z,65.70
2018-02-15T16:09:11.395Z,66.50
2018-02-15T16:14:39.535Z,66.80
2018-02-15T16:20:08.530Z,67.30
2018-02-15T16:25:36.697Z,67.30
2018-02-15T16:31:04.881Z,67.50
2018-02-15T16:36:33.042Z,67.70
2018-02-15T16:42:01.170Z,68.00
2018-02-15T16:47:29.307Z,68.30
2018-02-15T16:52:57.455Z,68.50
2018-02-15T16:58:25.623Z,68.70
2018-02-15T17:03:53.749Z,68.90
2018-02-15T17:09:21.899Z,69.00
2018-02-15T17:14:50.044Z,69.30
2018-02-15T17:20:18.195Z,69.40
2018-02-15T17:25:46.333Z,69.70
2018-02-15T17:31:14.471Z,69.80
2018-02-15T17:36:42.625Z,69.90
2018-02-15T17:42:10.787Z,70.20
2018-02-15T17:47:38.947Z,70.30
2018-02-15T17:53:07.112Z,70.50
2018-02-15T17:58:35.251Z,70.70
2018-02-15T18:04:03.507Z,70.90
2018-02-15T18:09:31.674Z,70.90
2018-02-15T18:14:59.834Z,71.10
2018-02-15T18:20:27.997Z,71.30
2018-02-15T18:25:56.929Z,71.50
2018-02-15T18:31:25.834Z,71.70
2018-02-15T18:36:53.997Z,71.60
2018-02-15T18:42:22.185Z,71.80
2018-02-15T18:47:50.318Z,71.80
2018-02-15T18:53:19.226Z,72.10
2018-02-15T18:58:47.582Z,72.10
2018-02-15T19:04:16.051Z,72.20
2018-02-15T19:09:44.280Z,72.30
2018-02-15T19:15:12.431Z,72.40
2018-02-15T19:20:40.636Z,72.50
2018-02-15T19:26:08.804Z,72.70
2018-02-15T19:31:37.736Z,72.90
2018-02-15T19:37:06.728Z,73.10
2018-02-15T19:42:34.991Z,73.10
2018-02-15T19:48:09.517Z,73.20
2018-02-15T19:53:39.090Z,73.20
2018-02-15T19:59:07.268Z,73.30
2018-02-15T20:04:35.516Z,73.50
2018-02-15T20:10:03.832Z,73.60
2018-02-15T20:15:37.569Z,73.60
2018-02-15T20:21:05.708Z,73.70
2018-02-15T20:32:44.871Z,74.00
2018-02-15T20:38:18.689Z,74.10
2018-02-15T20:43:46.865Z,74.10
2018-02-15T20:49:20.680Z,74.20
2018-02-15T20:54:54.692Z,74.30
2018-02-15T21:00:22.906Z,74.40
2018-02-15T21:05:51.825Z,74.60
2018-02-15T21:11:19.980Z,74.60
2018-02-15T21:16:48.360Z,74.60
2018-02-15T21:22:16.513Z,74.80
2018-02-15T21:27:45.435Z,75.00
2018-02-15T21:33:14.347Z,75.30
2018-02-15T21:38:42.574Z,75.00
2018-02-15T21:44:11.491Z,75.30
2018-02-15T21:49:39.639Z,75.50
2018-02-15T21:55:07.785Z,75.30
2018-02-15T22:00:36.707Z,75.70
2018-02-15T22:06:04.888Z,75.70
2018-02-15T22:11:33.052Z,76.30
2018-02-15T22:17:02.089Z,76.00
2018-02-15T22:22:31.006Z,76.10
2018-02-15T22:27:59.187Z,76.10
2018-02-15T22:33:27.332Z,76.20
2018-02-15T22:38:55.488Z,76.30
2018-02-15T22:44:24.430Z,76.60
2018-02-15T22:49:52.644Z,76.50
2018-02-15T22:55:20.799Z,76.60
2018-02-15T23:00:48.950Z,76.70
2018-02-15T23:06:17.104Z,76.90
2018-02-15T23:11:46.022Z,77.20
2018-02-15T23:17:14.154Z,77.10
2018-02-15T23:22:42.594Z,77.20
2018-02-15T23:28:11.732Z,77.40
2018-02-15T23:33:39.890Z,77.40
2018-02-15T23:39:08.048Z,77.50
2018-02-15T23:44:36.190Z,77.60
2018-02-15T23:50:04.337Z,77.70
2018-02-15T23:55:32.885Z,77.80
